createdAt,value
2022-07-25T00:02:30.234Z,23.31
2022-07-25T00:19:21.848Z,23.40
2022-07-25T00:45:21.660Z,24.38
2022-07-25T00:51:01.710Z,24.35
2022-07-25T00:54:04.641Z,22.96
2022-07-25T01:00:24.819Z,24.31
2022-07-25T01:02:58.057Z,24.22
2022-07-25T01:13:03.883Z,23.87
2022-07-25T01:16:02.614Z,23.84
2022-07-25T01:21:59.323Z,23.89
2022-07-25T01:24:26.139Z,24.04
2022-07-25T01:26:52.814Z,23.97
2022-07-25T01:29:19.455Z,23.94
2022-07-25T01:31:46.364Z,24.07
2022-07-25T01:34:13.086Z,23.92
2022-07-25T01:36:39.768Z,24.00
2022-07-25T01:39:09.034Z,24.08
2022-07-25T01:41:35.857Z,24.05
2022-07-25T01:44:02.740Z,23.83
2022-07-25T01:46:29.945Z,24.01
2022-07-25T01:48:56.770Z,23.87
2022-07-25T01:51:23.654Z,23.95
2022-07-25T01:53:53.433Z,23.95
2022-07-25T01:56:22.506Z,23.89
2022-07-25T01:58:49.401Z,23.77
2022-07-25T02:01:21.842Z,23.90
2022-07-25T02:04:04.387Z,23.37
2022-07-25T02:06:49.904Z,23.59
2022-07-25T02:09:43.402Z,23.66
2022-07-25T02:12:24.954Z,23.02
2022-07-25T02:15:03.549Z,22.69
2022-07-25T02:17:49.685Z,23.36
2022-07-25T02:20:37.336Z,22.31
2022-07-25T02:23:26.588Z,22.36
2022-07-25T02:26:06.058Z,22.80
2022-07-25T02:29:16.530Z,22.84
2022-07-25T02:42:50.401Z,23.12
2022-07-25T02:45:34.742Z,22.83
2022-07-25T02:48:32.385Z,23.04
2022-07-25T02:51:20.974Z,22.53
2022-07-25T02:59:38.577Z,22.23
2022-07-25T03:02:16.387Z,22.60
2022-07-25T03:05:00.983Z,21.77
2022-07-25T03:08:02.266Z,22.85
2022-07-25T03:27:22.753Z,21.41
2022-07-25T03:33:09.026Z,22.20
2022-07-25T03:38:57.474Z,21.25
2022-07-25T03:41:35.890Z,22.49
2022-07-25T03:44:11.219Z,21.48
2022-07-25T03:47:20.355Z,22.11
2022-07-25T03:56:53.607Z,21.22
2022-07-25T03:59:26.716Z,22.39
2022-07-25T04:08:45.622Z,22.38
2022-07-25T04:12:16.855Z,22.38
2022-07-25T04:15:32.812Z,21.14
2022-07-25T04:25:22.490Z,21.39
2022-07-25T04:37:16.156Z,22.52
2022-07-25T04:39:42.895Z,22.42
2022-07-25T04:42:09.530Z,22.39
2022-07-25T04:44:36.596Z,22.57
2022-07-25T04:47:03.662Z,22.62
2022-07-25T04:49:30.329Z,22.64
2022-07-25T04:51:57.021Z,22.65
2022-07-25T04:54:25.302Z,22.23
2022-07-25T04:56:52.296Z,22.49
2022-07-25T04:59:19.140Z,22.74
2022-07-25T05:01:46.153Z,22.68
2022-07-25T05:04:12.920Z,22.78
2022-07-25T05:06:43.063Z,22.64
2022-07-25T05:12:53.634Z,22.80
2022-07-25T05:15:25.911Z,22.82
2022-07-25T05:17:53.032Z,22.56
2022-07-25T05:20:19.890Z,22.79
2022-07-25T05:22:48.601Z,22.64
2022-07-25T05:25:38.437Z,22.00
2022-07-25T05:28:29.005Z,22.66
2022-07-25T05:30:56.205Z,22.54
2022-07-25T05:33:23.210Z,22.21
2022-07-25T05:35:56.850Z,22.37
2022-07-25T05:38:23.850Z,22.41
2022-07-25T05:40:58.631Z,22.21
2022-07-25T05:43:27.024Z,22.88
2022-07-25T05:46:00.488Z,22.30
2022-07-25T05:48:31.488Z,22.88
2022-07-25T05:51:10.422Z,22.06
2022-07-25T05:53:45.862Z,22.81
2022-07-25T05:56:14.249Z,23.15
2022-07-25T05:58:45.277Z,22.26
2022-07-25T06:01:20.910Z,22.42
2022-07-25T06:03:47.870Z,22.11
2022-07-25T06:06:20.989Z,22.36
2022-07-25T06:08:47.910Z,22.66
2022-07-25T06:11:21.746Z,23.25
2022-07-25T06:13:54.061Z,22.37
2022-07-25T06:16:28.589Z,22.79
2022-07-25T06:18:55.901Z,22.83
2022-07-25T06:21:37.362Z,22.43
2022-07-25T06:24:08.771Z,23.05
2022-07-25T06:26:59.307Z,23.20
2022-07-25T06:29:31.627Z,22.83
2022-07-25T06:32:15.914Z,23.26
2022-07-25T06:34:43.179Z,22.48
2022-07-25T06:37:09.920Z,23.47
2022-07-25T06:39:36.725Z,22.90
2022-07-25T06:42:03.688Z,23.14
2022-07-25T06:44:44.625Z,23.71
2022-07-25T06:47:11.940Z,23.85
2022-07-25T06:49:39.176Z,23.77
2022-07-25T06:52:05.969Z,24.08
2022-07-25T06:54:32.835Z,24.12
2022-07-25T06:56:59.513Z,24.17
2022-07-25T06:59:26.416Z,24.21
2022-07-25T07:01:54.717Z,24.34
2022-07-25T07:04:21.421Z,24.37
2022-07-25T07:06:48.126Z,24.30
2022-07-25T07:09:14.973Z,24.49
2022-07-25T07:11:41.698Z,24.55
2022-07-25T07:14:08.674Z,24.62
2022-07-25T07:16:35.914Z,24.63
2022-07-25T07:19:04.623Z,24.60
2022-07-25T07:21:31.715Z,24.68
2022-07-25T07:23:58.532Z,24.75
2022-07-25T07:26:25.296Z,24.72
2022-07-25T07:28:52.215Z,24.80
2022-07-25T07:31:19.277Z,24.89
2022-07-25T07:33:46.357Z,24.75
2022-07-25T07:36:14.606Z,25.06
2022-07-25T07:38:41.424Z,24.88
2022-07-25T07:41:08.255Z,25.05
2022-07-25T07:43:34.967Z,25.00
2022-07-25T07:46:02.014Z,25.04
2022-07-25T07:55:10.127Z,24.81
2022-07-25T07:57:48.811Z,24.59
2022-07-25T08:00:32.007Z,24.54
2022-07-25T08:03:22.098Z,23.90
2022-07-25T08:05:51.975Z,23.86
2022-07-25T08:08:24.129Z,24.37
2022-07-25T08:11:15.807Z,23.96
2022-07-25T08:13:53.870Z,23.83
2022-07-25T08:16:24.210Z,23.37
2022-07-25T08:18:56.744Z,24.43
2022-07-25T08:21:28.638Z,24.09
2022-07-25T08:23:56.729Z,23.61
2022-07-25T08:26:25.479Z,23.96
2022-07-25T08:29:11.108Z,23.19
2022-07-25T08:31:40.563Z,23.14
2022-07-25T08:34:07.873Z,24.26
2022-07-25T08:37:04.112Z,24.38
2022-07-25T08:39:35.494Z,23.55
2022-07-25T08:42:11.441Z,24.27
2022-07-25T08:44:55.976Z,24.49
2022-07-25T08:47:30.352Z,24.22
2022-07-25T08:50:13.961Z,23.46
2022-07-25T08:53:35.561Z,24.03
2022-07-25T08:56:18.850Z,24.13
2022-07-25T08:58:50.768Z,24.06
2022-07-25T09:01:20.876Z,24.27
2022-07-25T09:03:50.698Z,24.27
2022-07-25T09:06:43.837Z,24.01
2022-07-25T09:09:36.784Z,23.24
2022-07-25T09:15:09.145Z,23.32
2022-07-25T09:18:03.804Z,23.27
2022-07-25T09:20:53.713Z,23.35
2022-07-25T09:23:42.768Z,23.54
2022-07-25T09:26:16.574Z,23.62
2022-07-25T09:29:16.027Z,23.81
2022-07-25T09:32:17.471Z,23.25
2022-07-25T09:34:50.468Z,23.30
2022-07-25T09:40:26.312Z,23.85
2022-07-25T09:47:00.529Z,23.92
2022-07-25T09:49:45.378Z,22.99
2022-07-25T09:52:17.216Z,23.27
2022-07-25T09:54:55.881Z,23.42
2022-07-25T09:57:46.495Z,23.72
2022-07-25T10:00:26.412Z,23.64
2022-07-25T10:06:50.459Z,22.92
2022-07-25T10:09:21.269Z,23.41
2022-07-25T10:12:10.266Z,23.81
2022-07-25T10:14:43.294Z,23.35
2022-07-25T10:17:31.151Z,23.86
2022-07-25T10:20:01.247Z,24.22
2022-07-25T10:22:56.290Z,23.87
2022-07-25T10:25:31.225Z,23.15
2022-07-25T10:31:14.507Z,24.17
2022-07-25T10:34:00.604Z,24.79
2022-07-25T10:36:48.970Z,24.16
2022-07-25T10:39:29.626Z,24.98
2022-07-25T10:42:01.762Z,24.32
2022-07-25T10:44:58.730Z,25.18
2022-07-25T10:50:53.360Z,24.53
2022-07-25T10:53:51.169Z,23.92
2022-07-25T10:56:27.459Z,24.90
2022-07-25T10:59:32.623Z,24.28
2022-07-25T11:08:19.946Z,23.84
2022-07-25T11:16:35.300Z,23.58
2022-07-25T11:19:19.957Z,23.04
2022-07-25T11:22:01.537Z,23.83
2022-07-25T11:24:44.231Z,24.41
2022-07-25T11:27:28.649Z,24.19
2022-07-25T11:30:20.717Z,24.65
2022-07-25T11:33:00.084Z,24.25
2022-07-25T11:35:55.579Z,24.33
2022-07-25T11:38:31.001Z,24.15
2022-07-25T11:43:53.414Z,24.27
2022-07-25T11:46:34.339Z,24.39
2022-07-25T11:49:15.319Z,23.85
2022-07-25T11:51:48.497Z,24.46
2022-07-25T11:54:36.439Z,23.52
2022-07-25T11:57:29.950Z,24.45
2022-07-25T12:00:24.145Z,24.48
2022-07-25T12:03:19.386Z,24.67
2022-07-25T12:09:05.994Z,25.15
2022-07-25T12:12:09.282Z,25.45
2022-07-25T12:14:53.146Z,24.99
2022-07-25T12:21:04.101Z,24.60
2022-07-25T12:26:26.095Z,24.76
2022-07-25T12:28:56.919Z,25.60
2022-07-25T12:31:43.426Z,25.20
2022-07-25T12:34:18.864Z,24.19
2022-07-25T12:37:04.320Z,24.76
2022-07-25T12:40:00.190Z,24.59
2022-07-25T12:42:42.358Z,24.56
2022-07-25T12:45:32.275Z,24.11
2022-07-25T12:48:14.323Z,24.34
2022-07-25T12:50:50.938Z,24.26
2022-07-25T12:56:47.262Z,24.72
2022-07-25T13:02:20.995Z,25.37
2022-07-25T13:05:04.937Z,24.68
2022-07-25T13:07:38.420Z,24.06
2022-07-25T13:10:37.628Z,23.89
2022-07-25T13:13:18.635Z,24.58
2022-07-25T13:16:07.096Z,25.13
2022-07-25T13:18:44.311Z,25.44
2022-07-25T13:21:25.343Z,25.23
2022-07-25T13:24:05.080Z,24.90
2022-07-25T13:27:06.686Z,24.94
2022-07-25T13:32:33.578Z,24.24
2022-07-25T13:35:20.688Z,24.61
2022-07-25T13:38:06.209Z,25.06
2022-07-25T13:40:59.181Z,24.64
2022-07-25T13:43:39.127Z,25.13
2022-07-25T13:46:27.121Z,24.85
2022-07-25T13:49:24.162Z,25.06
2022-07-25T13:52:28.445Z,24.71
2022-07-25T13:55:01.854Z,25.39
2022-07-25T13:57:45.016Z,24.52
2022-07-25T14:00:17.133Z,25.02
2022-07-25T14:03:19.085Z,24.54
2022-07-25T14:06:06.694Z,24.95
2022-07-25T14:09:09.279Z,24.85
2022-07-25T14:17:41.581Z,25.09
2022-07-25T14:20:35.969Z,24.43
2022-07-25T14:23:13.701Z,24.37
2022-07-25T14:25:54.783Z,24.41
2022-07-25T14:28:52.796Z,25.30
2022-07-25T14:31:23.764Z,25.44
2022-07-25T14:34:01.286Z,24.44
2022-07-25T14:36:43.199Z,24.46
2022-07-25T14:39:24.728Z,24.40
2022-07-25T14:41:59.843Z,25.03
2022-07-25T14:47:36.339Z,24.04
2022-07-25T14:50:24.671Z,23.92
2022-07-25T14:52:59.358Z,24.66
2022-07-25T14:55:35.864Z,24.63
2022-07-25T15:01:39.851Z,24.80
2022-07-25T15:04:14.423Z,24.33
2022-07-25T15:09:41.268Z,24.14
2022-07-25T15:12:28.340Z,23.68
2022-07-25T15:15:16.428Z,24.42
2022-07-25T15:17:49.832Z,24.49
2022-07-25T15:20:30.814Z,24.40
2022-07-25T15:27:18.492Z,24.09
2022-07-25T15:33:33.739Z,24.93
2022-07-25T15:36:10.189Z,24.09
2022-07-25T15:49:26.649Z,22.80
2022-07-25T15:52:20.229Z,23.29
2022-07-25T15:58:07.638Z,23.63
2022-07-25T16:00:49.879Z,24.08
2022-07-25T16:04:27.843Z,23.32
2022-07-25T16:10:31.581Z,24.05
2022-07-25T16:19:33.253Z,23.31
2022-07-25T16:24:53.859Z,23.37
2022-07-25T16:30:41.854Z,23.48
2022-07-25T16:36:34.383Z,22.07
2022-07-25T16:49:25.523Z,21.66
2022-07-25T16:54:59.942Z,22.50
2022-07-25T16:57:26.642Z,22.91
2022-07-25T16:59:53.782Z,22.83
2022-07-25T17:02:20.695Z,22.67
2022-07-25T17:04:53.637Z,22.85
2022-07-25T17:07:21.840Z,22.83
2022-07-25T17:09:48.874Z,22.84
2022-07-25T17:12:15.640Z,22.82
2022-07-25T17:14:42.367Z,22.66
2022-07-25T17:17:09.187Z,22.53
2022-07-25T17:19:36.150Z,22.53
2022-07-25T17:22:04.523Z,22.66
2022-07-25T17:24:33.053Z,22.54
2022-07-25T17:27:00.541Z,22.63
2022-07-25T17:29:36.007Z,22.54
2022-07-25T17:32:02.859Z,22.61
2022-07-25T17:34:30.670Z,22.64
2022-07-25T17:36:57.404Z,22.51
2022-07-25T17:39:25.426Z,22.63
2022-07-25T17:41:54.037Z,22.10
2022-07-25T17:44:20.989Z,22.48
2022-07-25T17:46:47.858Z,22.54
2022-07-25T17:49:14.756Z,22.41
2022-07-25T17:51:42.045Z,22.41
2022-07-25T17:54:10.268Z,22.26
2022-07-25T17:56:40.862Z,22.07
2022-07-25T17:59:09.289Z,22.34
2022-07-25T18:01:37.452Z,22.25
2022-07-25T18:04:06.011Z,22.29
2022-07-25T18:06:33.391Z,22.27
2022-07-25T18:09:00.483Z,21.97
2022-07-25T18:11:27.332Z,22.18
2022-07-25T18:13:54.274Z,21.97
2022-07-25T18:16:22.955Z,22.18
2022-07-25T18:18:49.826Z,22.19
2022-07-25T18:21:16.527Z,22.20
2022-07-25T18:23:43.240Z,22.17
2022-07-25T18:26:12.064Z,22.18
2022-07-25T18:28:38.818Z,22.15
2022-07-25T18:31:05.988Z,21.94
2022-07-25T18:33:34.360Z,22.08
2022-07-25T18:36:06.950Z,22.05
2022-07-25T18:38:34.398Z,21.98
2022-07-25T18:41:26.472Z,21.97
2022-07-25T18:43:48.739Z,21.95
2022-07-25T18:46:15.951Z,21.96
2022-07-25T18:48:45.316Z,21.92
2022-07-25T18:51:12.133Z,21.87
2022-07-25T18:53:39.334Z,21.89
2022-07-25T18:56:06.399Z,21.90
2022-07-25T18:58:33.188Z,21.83
2022-07-25T19:01:01.338Z,21.73
2022-07-25T19:03:28.111Z,21.82
2022-07-25T19:06:01.265Z,21.81
2022-07-25T19:08:32.321Z,21.70
2022-07-25T19:10:59.153Z,21.77
2022-07-25T19:13:48.329Z,21.63
2022-07-25T19:16:13.416Z,21.55
2022-07-25T19:18:41.787Z,21.73
2022-07-25T19:21:10.014Z,21.68
2022-07-25T19:23:37.959Z,21.69
2022-07-25T19:26:04.985Z,21.68
2022-07-25T19:28:31.793Z,21.68
2022-07-25T19:30:58.992Z,21.61
2022-07-25T19:33:25.866Z,21.61
2022-07-25T19:36:02.150Z,21.59
2022-07-25T19:38:30.314Z,21.55
2022-07-25T19:40:57.061Z,21.55
2022-07-25T19:43:27.180Z,21.53
2022-07-25T19:45:55.026Z,21.18
2022-07-25T19:48:21.810Z,21.29
2022-07-25T19:50:48.536Z,21.49
2022-07-25T19:53:15.377Z,21.36
2022-07-25T19:55:44.154Z,21.44
2022-07-25T19:58:10.851Z,21.38
2022-07-25T20:00:38.372Z,21.36
2022-07-25T20:03:05.578Z,21.36
2022-07-25T20:05:32.798Z,21.30
2022-07-25T20:07:59.607Z,20.84
2022-07-25T20:10:26.759Z,21.18
2022-07-25T20:12:59.545Z,21.22
2022-07-25T20:15:28.429Z,21.11
2022-07-25T20:17:56.098Z,21.13
2022-07-25T20:20:22.926Z,21.13
2022-07-25T20:22:49.910Z,21.08
2022-07-25T20:25:16.916Z,21.07
2022-07-25T20:27:43.748Z,21.01
2022-07-25T20:30:12.886Z,21.07
2022-07-25T20:32:39.657Z,21.04
2022-07-25T20:35:07.439Z,20.88
2022-07-25T20:37:34.175Z,21.03
2022-07-25T20:40:08.637Z,21.02
2022-07-25T20:42:36.864Z,20.96
2022-07-25T20:45:04.083Z,20.64
2022-07-25T20:47:35.761Z,20.88
2022-07-25T20:50:03.990Z,20.65
2022-07-25T20:52:30.880Z,20.96
2022-07-25T20:54:57.832Z,20.97
2022-07-25T20:57:24.603Z,20.71
2022-07-25T20:59:51.524Z,20.74
2022-07-25T21:02:18.572Z,20.84
2022-07-25T21:04:59.098Z,20.62
2022-07-25T21:07:25.988Z,20.65
2022-07-25T21:13:57.894Z,19.42
2022-07-25T21:17:01.752Z,19.44
2022-07-25T21:23:39.347Z,19.33
2022-07-25T21:26:37.580Z,19.05
2022-07-25T21:35:25.615Z,20.41
2022-07-25T21:41:05.124Z,19.35
2022-07-25T21:43:56.860Z,20.02
2022-07-25T21:47:03.061Z,20.14
2022-07-25T21:50:19.309Z,20.42
2022-07-25T21:53:38.741Z,19.42
2022-07-25T22:00:33.437Z,19.71
2022-07-25T22:09:51.919Z,20.40
2022-07-25T22:12:23.838Z,19.79
2022-07-25T22:20:56.631Z,19.44
2022-07-25T22:26:40.955Z,20.34
2022-07-25T22:29:55.513Z,20.06
2022-07-25T22:32:31.466Z,19.11
2022-07-25T22:38:04.422Z,20.24
2022-07-25T22:41:04.691Z,19.03
2022-07-25T22:43:58.453Z,20.02
2022-07-25T22:46:48.404Z,18.93
2022-07-25T22:49:41.723Z,19.99
2022-07-25T22:55:20.747Z,20.22
2022-07-25T22:58:19.618Z,20.23
2022-07-25T23:01:02.630Z,19.55
2022-07-25T23:06:37.939Z,20.01
2022-07-25T23:09:24.591Z,19.89
2022-07-25T23:12:12.948Z,19.41
2022-07-25T23:20:35.513Z,19.34
2022-07-25T23:23:39.546Z,19.52
2022-07-25T23:26:12.564Z,20.21
2022-07-25T23:28:44.340Z,19.76
2022-07-25T23:31:20.496Z,20.23
2022-07-25T23:33:51.654Z,18.95
2022-07-25T23:36:33.799Z,19.96
2022-07-25T23:39:26.969Z,20.15
2022-07-25T23:41:56.407Z,19.07
2022-07-25T23:44:23.817Z,19.81
2022-07-25T23:47:21.221Z,20.07
2022-07-25T23:50:10.023Z,18.94
2022-07-25T23:59:08.103Z,19.97
